sensor_id;sensor_type;location;lat;lon;timestamp;P1;durP1;ratioP1;P2;durP2;ratioP2
33108;SDS011;19481;51.118;6.940;2023-04-03T00:04:55;5.25;;;4.75;;
33108;SDS011;19481;51.118;6.940;2023-04-03T00:09:56;7.28;;;4.68;;
33108;SDS011;19481;51.118;6.940;2023-04-03T00:14:59;11.32;;;5.05;;
33108;SDS011;19481;51.118;6.940;2023-04-03T00:20:01;5.53;;;5.00;;
33108;SDS011;19481;51.118;6.940;2023-04-03T00:25:03;6.45;;;4.50;;
33108;SDS011;19481;51.118;6.940;2023-04-03T00:30:09;7.43;;;4.75;;
33108;SDS011;19481;51.118;6.940;2023-04-03T00:35:15;8.18;;;4.63;;
33108;SDS011;19481;51.118;6.940;2023-04-03T00:40:16;5.28;;;4.60;;
33108;SDS011;19481;51.118;6.940;2023-04-03T00:45:27;7.85;;;5.45;;
33108;SDS011;19481;51.118;6.940;2023-04-03T00:50:33;7.07;;;5.32;;
33108;SDS011;19481;51.118;6.940;2023-04-03T00:55:38;5.78;;;4.70;;
33108;SDS011;19481;51.118;6.940;2023-04-03T01:00:42;7.10;;;4.80;;
33108;SDS011;19481;51.118;6.940;2023-04-03T01:05:47;6.57;;;5.40;;
33108;SDS011;19481;51.118;6.940;2023-04-03T01:10:49;8.52;;;5.50;;
33108;SDS011;19481;51.118;6.940;2023-04-03T01:15:53;8.93;;;4.95;;
33108;SDS011;19481;51.118;6.940;2023-04-03T01:26:24;4.97;;;4.32;;
33108;SDS011;19481;51.118;6.940;2023-04-03T01:31:30;9.75;;;4.85;;
33108;SDS011;19481;51.118;6.940;2023-04-03T01:36:36;6.25;;;5.25;;
33108;SDS011;19481;51.118;6.940;2023-04-03T01:41:38;8.05;;;5.22;;
33108;SDS011;19481;51.118;6.940;2023-04-03T01:46:40;5.30;;;4.50;;
33108;SDS011;19481;51.118;6.940;2023-04-03T01:51:43;6.95;;;4.97;;
33108;SDS011;19481;51.118;6.940;2023-04-03T01:56:45;5.65;;;4.90;;
33108;SDS011;19481;51.118;6.940;2023-04-03T02:01:46;7.53;;;4.55;;
33108;SDS011;19481;51.118;6.940;2023-04-03T02:06:50;6.47;;;4.82;;
33108;SDS011;19481;51.118;6.940;2023-04-03T02:11:51;7.55;;;4.50;;
33108;SDS011;19481;51.118;6.940;2023-04-03T02:16:53;5.35;;;4.80;;
33108;SDS011;19481;51.118;6.940;2023-04-03T02:21:56;6.57;;;4.63;;
33108;SDS011;19481;51.118;6.940;2023-04-03T02:26:58;6.88;;;4.75;;
33108;SDS011;19481;51.118;6.940;2023-04-03T02:31:59;7.13;;;4.60;;
33108;SDS011;19481;51.118;6.940;2023-04-03T02:37:02;6.93;;;4.10;;
33108;SDS011;19481;51.118;6.940;2023-04-03T02:42:04;4.70;;;4.18;;
33108;SDS011;19481;51.118;6.940;2023-04-03T02:47:06;5.38;;;4.18;;
33108;SDS011;19481;51.118;6.940;2023-04-03T02:52:09;5.65;;;3.58;;
33108;SDS011;19481;51.118;6.940;2023-04-03T02:57:10;5.78;;;3.83;;
33108;SDS011;19481;51.118;6.940;2023-04-03T03:02:12;4.97;;;3.58;;
33108;SDS011;19481;51.118;6.940;2023-04-03T03:07:15;5.93;;;3.88;;
33108;SDS011;19481;51.118;6.940;2023-04-03T03:12:16;9.45;;;4.03;;
33108;SDS011;19481;51.118;6.940;2023-04-03T03:17:21;4.03;;;3.58;;
33108;SDS011;19481;51.118;6.940;2023-04-03T03:22:24;4.85;;;3.75;;
33108;SDS011;19481;51.118;6.940;2023-04-03T03:27:26;4.63;;;3.47;;
33108;SDS011;19481;51.118;6.940;2023-04-03T03:32:28;3.95;;;3.47;;
33108;SDS011;19481;51.118;6.940;2023-04-03T03:37:31;3.80;;;3.47;;
33108;SDS011;19481;51.118;6.940;2023-04-03T03:42:33;3.67;;;3.38;;
33108;SDS011;19481;51.118;6.940;2023-04-03T03:47:34;6.20;;;3.95;;
33108;SDS011;19481;51.118;6.940;2023-04-03T03:52:37;3.80;;;3.20;;
33108;SDS011;19481;51.118;6.940;2023-04-03T03:57:39;3.10;;;2.78;;
33108;SDS011;19481;51.118;6.940;2023-04-03T04:02:41;6.90;;;3.22;;
33108;SDS011;19481;51.118;6.940;2023-04-03T04:07:44;3.97;;;2.80;;
33108;SDS011;19481;51.118;6.940;2023-04-03T04:12:46;4.97;;;2.20;;
33108;SDS011;19481;51.118;6.940;2023-04-03T04:17:49;2.85;;;2.58;;
33108;SDS011;19481;51.118;6.940;2023-04-03T04:22:52;2.28;;;2.10;;
33108;SDS011;19481;51.118;6.940;2023-04-03T04:27:53;4.22;;;2.38;;
33108;SDS011;19481;51.118;6.940;2023-04-03T04:32:55;5.15;;;2.42;;
33108;SDS011;19481;51.118;6.940;2023-04-03T04:37:58;5.00;;;2.47;;
33108;SDS011;19481;51.118;6.940;2023-04-03T04:42:59;4.00;;;2.38;;
33108;SDS011;19481;51.118;6.940;2023-04-03T04:48:01;4.03;;;2.22;;
33108;SDS011;19481;51.118;6.940;2023-04-03T04:53:04;3.60;;;2.35;;
33108;SDS011;19481;51.118;6.940;2023-04-03T04:58:06;4.43;;;2.13;;
33108;SDS011;19481;51.118;6.940;2023-04-03T05:03:07;6.05;;;2.35;;
33108;SDS011;19481;51.118;6.940;2023-04-03T05:08:10;3.78;;;2.35;;
33108;SDS011;19481;51.118;6.940;2023-04-03T05:13:12;3.80;;;2.20;;
33108;SDS011;19481;51.118;6.940;2023-04-03T05:18:13;3.03;;;2.00;;
33108;SDS011;19481;51.118;6.940;2023-04-03T05:23:16;2.63;;;2.13;;
33108;SDS011;19481;51.118;6.940;2023-04-03T05:28:18;2.17;;;1.98;;
33108;SDS011;19481;51.118;6.940;2023-04-03T05:33:20;6.25;;;2.50;;
33108;SDS011;19481;51.118;6.940;2023-04-03T05:38:23;4.10;;;2.00;;
33108;SDS011;19481;51.118;6.940;2023-04-03T05:43:25;4.50;;;2.30;;
33108;SDS011;19481;51.118;6.940;2023-04-03T05:48:26;2.88;;;2.20;;
33108;SDS011;19481;51.118;6.940;2023-04-03T05:53:29;3.05;;;2.25;;
33108;SDS011;19481;51.118;6.940;2023-04-03T05:58:32;5.65;;;1.88;;
33108;SDS011;19481;51.118;6.940;2023-04-03T06:03:34;3.47;;;1.77;;
33108;SDS011;19481;51.118;6.940;2023-04-03T06:08:37;3.53;;;2.17;;
33108;SDS011;19481;51.118;6.940;2023-04-03T06:13:39;3.45;;;1.83;;
33108;SDS011;19481;51.118;6.940;2023-04-03T06:18:40;2.10;;;1.90;;
33108;SDS011;19481;51.118;6.940;2023-04-03T06:23:43;2.97;;;2.28;;
33108;SDS011;19481;51.118;6.940;2023-04-03T06:28:46;2.63;;;2.20;;
33108;SDS011;19481;51.118;6.940;2023-04-03T06:33:47;4.50;;;1.88;;
33108;SDS011;19481;51.118;6.940;2023-04-03T06:38:50;1.88;;;1.73;;
33108;SDS011;19481;51.118;6.940;2023-04-03T06:43:52;3.47;;;1.95;;
33108;SDS011;19481;51.118;6.940;2023-04-03T06:48:56;3.28;;;2.03;;
33108;SDS011;19481;51.118;6.940;2023-04-03T06:53:59;3.90;;;2.30;;
33108;SDS011;19481;51.118;6.940;2023-04-03T06:59:02;2.22;;;1.55;;
33108;SDS011;19481;51.118;6.940;2023-04-03T07:04:04;2.45;;;1.45;;
33108;SDS011;19481;51.118;6.940;2023-04-03T07:09:07;3.08;;;1.77;;
33108;SDS011;19481;51.118;6.940;2023-04-03T07:14:09;3.22;;;1.77;;
33108;SDS011;19481;51.118;6.940;2023-04-03T07:19:10;2.33;;;1.55;;
33108;SDS011;19481;51.118;6.940;2023-04-03T07:24:13;2.40;;;1.52;;
33108;SDS011;19481;51.118;6.940;2023-04-03T07:29:15;2.17;;;1.60;;
33108;SDS011;19481;51.118;6.940;2023-04-03T07:34:17;3.90;;;1.50;;
33108;SDS011;19481;51.118;6.940;2023-04-03T07:39:20;5.47;;;1.67;;
33108;SDS011;19481;51.118;6.940;2023-04-03T07:44:22;3.33;;;1.60;;
33108;SDS011;19481;51.118;6.940;2023-04-03T07:49:23;3.63;;;1.60;;
33108;SDS011;19481;51.118;6.940;2023-04-03T07:54:27;3.10;;;1.70;;
33108;SDS011;19481;51.118;6.940;2023-04-03T07:59:29;1.75;;;1.00;;
33108;SDS011;19481;51.118;6.940;2023-04-03T08:04:30;2.97;;;1.20;;
33108;SDS011;19481;51.118;6.940;2023-04-03T08:09:33;1.83;;;1.23;;
33108;SDS011;19481;51.118;6.940;2023-04-03T08:14:35;2.42;;;1.20;;
33108;SDS011;19481;51.118;6.940;2023-04-03T08:19:37;1.33;;;0.75;;
33108;SDS011;19481;51.118;6.940;2023-04-03T08:24:40;1.55;;;0.80;;
33108;SDS011;19481;51.118;6.940;2023-04-03T08:29:42;2.90;;;0.73;;
33108;SDS011;19481;51.118;6.940;2023-04-03T08:34:43;1.73;;;0.88;;
33108;SDS011;19481;51.118;6.940;2023-04-03T08:39:47;1.60;;;1.02;;
33108;SDS011;19481;51.118;6.940;2023-04-03T08:44:51;1.38;;;0.80;;
33108;SDS011;19481;51.118;6.940;2023-04-03T08:55:02;1.40;;;0.90;;
33108;SDS011;19481;51.118;6.940;2023-04-03T09:00:07;2.40;;;0.80;;
33108;SDS011;19481;51.118;6.940;2023-04-03T09:05:19;0.80;;;0.80;;
33108;SDS011;19481;51.118;6.940;2023-04-03T09:10:29;4.88;;;1.02;;
33108;SDS011;19481;51.118;6.940;2023-04-03T09:15:35;2.60;;;1.02;;
33108;SDS011;19481;51.118;6.940;2023-04-03T09:20:39;2.15;;;1.20;;
33108;SDS011;19481;51.118;6.940;2023-04-03T09:25:46;3.58;;;1.00;;
33108;SDS011;19481;51.118;6.940;2023-04-03T09:30:48;1.00;;;0.82;;
33108;SDS011;19481;51.118;6.940;2023-04-03T09:35:50;1.20;;;1.10;;
33108;SDS011;19481;51.118;6.940;2023-04-03T09:41:04;1.63;;;1.00;;
33108;SDS011;19481;51.118;6.940;2023-04-03T09:46:18;2.85;;;1.05;;
33108;SDS011;19481;51.118;6.940;2023-04-03T09:51:27;3.20;;;1.20;;
33108;SDS011;19481;51.118;6.940;2023-04-03T09:56:30;3.08;;;1.30;;
33108;SDS011;19481;51.118;6.940;2023-04-03T10:01:33;1.02;;;0.80;;
33108;SDS011;19481;51.118;6.940;2023-04-03T10:06:37;1.25;;;0.93;;
33108;SDS011;19481;51.118;6.940;2023-04-03T10:11:51;3.77;;;1.27;;
33108;SDS011;19481;51.118;6.940;2023-04-03T10:17:02;0.93;;;0.80;;
33108;SDS011;19481;51.118;6.940;2023-04-03T10:22:19;3.03;;;0.93;;
33108;SDS011;19481;51.118;6.940;2023-04-03T10:27:29;1.65;;;1.17;;
33108;SDS011;19481;51.118;6.940;2023-04-03T10:32:44;1.42;;;0.80;;
33108;SDS011;19481;51.118;6.940;2023-04-03T10:37:57;1.33;;;0.85;;
33108;SDS011;19481;51.118;6.940;2023-04-03T10:43:08;1.20;;;0.95;;
33108;SDS011;19481;51.118;6.940;2023-04-03T10:48:18;1.45;;;0.90;;
33108;SDS011;19481;51.118;6.940;2023-04-03T10:53:33;3.75;;;1.00;;
33108;SDS011;19481;51.118;6.940;2023-04-03T10:58:41;2.67;;;0.90;;
33108;SDS011;19481;51.118;6.940;2023-04-03T11:03:46;1.95;;;0.90;;
33108;SDS011;19481;51.118;6.940;2023-04-03T11:08:53;0.77;;;0.73;;
33108;SDS011;19481;51.118;6.940;2023-04-03T11:14:05;0.85;;;0.80;;
33108;SDS011;19481;51.118;6.940;2023-04-03T11:19:17;1.20;;;0.60;;
33108;SDS011;19481;51.118;6.940;2023-04-03T11:24:24;0.73;;;0.73;;
33108;SDS011;19481;51.118;6.940;2023-04-03T11:29:31;1.67;;;0.80;;
33108;SDS011;19481;51.118;6.940;2023-04-03T11:34:35;1.60;;;0.82;;
33108;SDS011;19481;51.118;6.940;2023-04-03T11:39:49;0.80;;;0.80;;
33108;SDS011;19481;51.118;6.940;2023-04-03T11:50:32;1.40;;;0.82;;
33108;SDS011;19481;51.118;6.940;2023-04-03T11:55:42;1.63;;;1.00;;
33108;SDS011;19481;51.118;6.940;2023-04-03T12:01:07;1.33;;;0.75;;
33108;SDS011;19481;51.118;6.940;2023-04-03T12:11:49;0.65;;;0.65;;
33108;SDS011;19481;51.118;6.940;2023-04-03T12:16:54;0.90;;;0.90;;
33108;SDS011;19481;51.118;6.940;2023-04-03T12:22:04;1.27;;;0.90;;
33108;SDS011;19481;51.118;6.940;2023-04-03T12:27:20;0.80;;;0.80;;
33108;SDS011;19481;51.118;6.940;2023-04-03T12:32:31;2.40;;;1.00;;
33108;SDS011;19481;51.118;6.940;2023-04-03T12:43:23;1.52;;;0.80;;
33108;SDS011;19481;51.118;6.940;2023-04-03T12:48:38;0.73;;;0.73;;
33108;SDS011;19481;51.118;6.940;2023-04-03T12:53:47;1.35;;;1.00;;
33108;SDS011;19481;51.118;6.940;2023-04-03T12:58:51;0.77;;;0.77;;
33108;SDS011;19481;51.118;6.940;2023-04-03T13:03:56;2.97;;;1.00;;
33108;SDS011;19481;51.118;6.940;2023-04-03T13:09:00;0.70;;;0.70;;
33108;SDS011;19481;51.118;6.940;2023-04-03T13:14:03;1.95;;;0.90;;
33108;SDS011;19481;51.118;6.940;2023-04-03T13:19:15;0.88;;;0.80;;
33108;SDS011;19481;51.118;6.940;2023-04-03T13:24:18;1.38;;;0.80;;
33108;SDS011;19481;51.118;6.940;2023-04-03T13:29:21;1.92;;;0.95;;
33108;SDS011;19481;51.118;6.940;2023-04-03T13:34:27;1.30;;;1.00;;
33108;SDS011;19481;51.118;6.940;2023-04-03T13:39:36;1.42;;;0.93;;
33108;SDS011;19481;51.118;6.940;2023-04-03T13:44:39;1.00;;;0.90;;
33108;SDS011;19481;51.118;6.940;2023-04-03T13:49:43;1.05;;;0.93;;
33108;SDS011;19481;51.118;6.940;2023-04-03T13:54:46;1.00;;;1.00;;
33108;SDS011;19481;51.118;6.940;2023-04-03T13:59:52;1.33;;;1.00;;
33108;SDS011;19481;51.118;6.940;2023-04-03T14:04:56;0.70;;;0.70;;
33108;SDS011;19481;51.118;6.940;2023-04-03T14:10:01;0.75;;;0.75;;
33108;SDS011;19481;51.118;6.940;2023-04-03T14:15:03;1.77;;;1.20;;
33108;SDS011;19481;51.118;6.940;2023-04-03T14:20:15;1.95;;;1.02;;
33108;SDS011;19481;51.118;6.940;2023-04-03T14:25:18;2.05;;;0.98;;
33108;SDS011;19481;51.118;6.940;2023-04-03T14:30:23;0.82;;;0.82;;
33108;SDS011;19481;51.118;6.940;2023-04-03T14:35:28;1.02;;;0.90;;
33108;SDS011;19481;51.118;6.940;2023-04-03T14:40:30;1.42;;;1.10;;
33108;SDS011;19481;51.118;6.940;2023-04-03T14:45:32;1.40;;;1.20;;
33108;SDS011;19481;51.118;6.940;2023-04-03T14:50:35;1.65;;;1.00;;
33108;SDS011;19481;51.118;6.940;2023-04-03T14:55:36;1.25;;;0.98;;
33108;SDS011;19481;51.118;6.940;2023-04-03T15:00:38;2.28;;;0.90;;
33108;SDS011;19481;51.118;6.940;2023-04-03T15:05:41;1.20;;;1.00;;
33108;SDS011;19481;51.118;6.940;2023-04-03T15:10:44;1.10;;;1.00;;
33108;SDS011;19481;51.118;6.940;2023-04-03T15:15:46;2.50;;;0.95;;
33108;SDS011;19481;51.118;6.940;2023-04-03T15:20:49;2.55;;;1.25;;
33108;SDS011;19481;51.118;6.940;2023-04-03T15:25:51;2.60;;;1.08;;
33108;SDS011;19481;51.118;6.940;2023-04-03T15:30:54;2.42;;;1.05;;
33108;SDS011;19481;51.118;6.940;2023-04-03T15:35:57;2.72;;;1.10;;
33108;SDS011;19481;51.118;6.940;2023-04-03T15:40:58;2.15;;;0.90;;
33108;SDS011;19481;51.118;6.940;2023-04-03T15:46:00;3.35;;;0.77;;
33108;SDS011;19481;51.118;6.940;2023-04-03T15:51:04;2.45;;;1.00;;
33108;SDS011;19481;51.118;6.940;2023-04-03T15:56:06;1.20;;;0.98;;
33108;SDS011;19481;51.118;6.940;2023-04-03T16:01:09;2.47;;;1.00;;
33108;SDS011;19481;51.118;6.940;2023-04-03T16:06:14;1.02;;;0.95;;
33108;SDS011;19481;51.118;6.940;2023-04-03T16:11:16;0.95;;;0.93;;
33108;SDS011;19481;51.118;6.940;2023-04-03T16:16:18;6.22;;;0.93;;
33108;SDS011;19481;51.118;6.940;2023-04-03T16:21:21;1.20;;;0.90;;
33108;SDS011;19481;51.118;6.940;2023-04-03T16:26:23;1.00;;;0.90;;
33108;SDS011;19481;51.118;6.940;2023-04-03T16:31:25;0.80;;;0.80;;
33108;SDS011;19481;51.118;6.940;2023-04-03T16:36:29;1.50;;;0.70;;
33108;SDS011;19481;51.118;6.940;2023-04-03T16:41:31;1.27;;;1.00;;
33108;SDS011;19481;51.118;6.940;2023-04-03T16:46:33;3.90;;;0.80;;
33108;SDS011;19481;51.118;6.940;2023-04-03T16:51:36;1.58;;;0.90;;
33108;SDS011;19481;51.118;6.940;2023-04-03T16:56:37;2.65;;;1.23;;
33108;SDS011;19481;51.118;6.940;2023-04-03T17:01:39;1.63;;;1.15;;
33108;SDS011;19481;51.118;6.940;2023-04-03T17:06:42;0.98;;;0.82;;
33108;SDS011;19481;51.118;6.940;2023-04-03T17:11:43;2.10;;;0.90;;
33108;SDS011;19481;51.118;6.940;2023-04-03T17:16:46;2.15;;;1.20;;
33108;SDS011;19481;51.118;6.940;2023-04-03T17:21:49;3.65;;;1.08;;
33108;SDS011;19481;51.118;6.940;2023-04-03T17:26:50;2.90;;;0.98;;
33108;SDS011;19481;51.118;6.940;2023-04-03T17:31:52;8.00;;;1.27;;
33108;SDS011;19481;51.118;6.940;2023-04-03T17:36:55;0.80;;;0.80;;
33108;SDS011;19481;51.118;6.940;2023-04-03T17:41:57;2.15;;;1.02;;
33108;SDS011;19481;51.118;6.940;2023-04-03T17:47:00;1.25;;;0.73;;
33108;SDS011;19481;51.118;6.940;2023-04-03T17:52:04;2.80;;;1.00;;
33108;SDS011;19481;51.118;6.940;2023-04-03T17:57:06;3.20;;;1.13;;
33108;SDS011;19481;51.118;6.940;2023-04-03T18:02:07;1.98;;;1.00;;
33108;SDS011;19481;51.118;6.940;2023-04-03T18:07:10;2.13;;;1.05;;
33108;SDS011;19481;51.118;6.940;2023-04-03T18:12:12;1.23;;;1.10;;
33108;SDS011;19481;51.118;6.940;2023-04-03T18:17:14;3.05;;;1.08;;
33108;SDS011;19481;51.118;6.940;2023-04-03T18:22:20;1.48;;;1.10;;
33108;SDS011;19481;51.118;6.940;2023-04-03T18:27:24;3.20;;;1.52;;
33108;SDS011;19481;51.118;6.940;2023-04-03T18:32:27;2.35;;;1.17;;
33108;SDS011;19481;51.118;6.940;2023-04-03T18:37:30;1.67;;;1.10;;
33108;SDS011;19481;51.118;6.940;2023-04-03T18:42:31;2.20;;;1.05;;
33108;SDS011;19481;51.118;6.940;2023-04-03T18:47:33;3.75;;;1.30;;
33108;SDS011;19481;51.118;6.940;2023-04-03T18:52:37;2.15;;;1.30;;
33108;SDS011;19481;51.118;6.940;2023-04-03T18:57:38;1.20;;;1.10;;
33108;SDS011;19481;51.118;6.940;2023-04-03T19:02:40;2.72;;;1.20;;
33108;SDS011;19481;51.118;6.940;2023-04-03T19:07:43;3.22;;;1.30;;
33108;SDS011;19481;51.118;6.940;2023-04-03T19:12:46;7.53;;;1.38;;
33108;SDS011;19481;51.118;6.940;2023-04-03T19:17:49;3.45;;;1.20;;
33108;SDS011;19481;51.118;6.940;2023-04-03T19:22:51;1.52;;;1.42;;
33108;SDS011;19481;51.118;6.940;2023-04-03T19:27:54;1.98;;;1.20;;
33108;SDS011;19481;51.118;6.940;2023-04-03T19:32:56;4.50;;;1.33;;
33108;SDS011;19481;51.118;6.940;2023-04-03T19:37:59;2.08;;;1.45;;
33108;SDS011;19481;51.118;6.940;2023-04-03T19:43:00;2.35;;;1.52;;
33108;SDS011;19481;51.118;6.940;2023-04-03T19:48:02;1.88;;;1.52;;
33108;SDS011;19481;51.118;6.940;2023-04-03T19:53:06;1.63;;;1.48;;
33108;SDS011;19481;51.118;6.940;2023-04-03T19:58:10;2.75;;;1.30;;
33108;SDS011;19481;51.118;6.940;2023-04-03T20:03:12;2.53;;;1.30;;
33108;SDS011;19481;51.118;6.940;2023-04-03T20:08:15;4.03;;;1.42;;
33108;SDS011;19481;51.118;6.940;2023-04-03T20:13:16;1.35;;;1.20;;
33108;SDS011;19481;51.118;6.940;2023-04-03T20:18:18;1.88;;;1.30;;
33108;SDS011;19481;51.118;6.940;2023-04-03T20:23:22;2.90;;;1.40;;
33108;SDS011;19481;51.118;6.940;2023-04-03T20:28:24;6.07;;;1.95;;
33108;SDS011;19481;51.118;6.940;2023-04-03T20:33:27;2.05;;;1.27;;
33108;SDS011;19481;51.118;6.940;2023-04-03T20:38:30;2.53;;;1.33;;
33108;SDS011;19481;51.118;6.940;2023-04-03T20:43:32;4.35;;;1.55;;
33108;SDS011;19481;51.118;6.940;2023-04-03T20:48:34;2.65;;;1.77;;
33108;SDS011;19481;51.118;6.940;2023-04-03T20:53:37;4.55;;;1.50;;
33108;SDS011;19481;51.118;6.940;2023-04-03T20:58:39;9.15;;;1.83;;
33108;SDS011;19481;51.118;6.940;2023-04-03T21:03:42;4.07;;;1.65;;
33108;SDS011;19481;51.118;6.940;2023-04-03T21:20:06;3.20;;;1.58;;
33108;SDS011;19481;51.118;6.940;2023-04-03T21:25:09;4.95;;;1.45;;
33108;SDS011;19481;51.118;6.940;2023-04-03T21:30:11;1.90;;;1.60;;
33108;SDS011;19481;51.118;6.940;2023-04-03T21:35:16;3.03;;;1.58;;
33108;SDS011;19481;51.118;6.940;2023-04-03T21:40:17;2.05;;;1.52;;
33108;SDS011;19481;51.118;6.940;2023-04-03T21:45:19;1.65;;;1.55;;
33108;SDS011;19481;51.118;6.940;2023-04-03T21:50:22;4.75;;;1.73;;
33108;SDS011;19481;51.118;6.940;2023-04-03T21:55:23;5.68;;;1.63;;
33108;SDS011;19481;51.118;6.940;2023-04-03T22:00:25;2.78;;;1.58;;
33108;SDS011;19481;51.118;6.940;2023-04-03T22:05:28;3.58;;;1.60;;
33108;SDS011;19481;51.118;6.940;2023-04-03T22:10:31;3.33;;;1.80;;
33108;SDS011;19481;51.118;6.940;2023-04-03T22:15:34;3.80;;;1.67;;
33108;SDS011;19481;51.118;6.940;2023-04-03T22:25:55;1.90;;;1.80;;
33108;SDS011;19481;51.118;6.940;2023-04-03T22:30:59;2.78;;;2.00;;
33108;SDS011;19481;51.118;6.940;2023-04-03T22:36:02;4.50;;;1.98;;
33108;SDS011;19481;51.118;6.940;2023-04-03T22:41:05;2.00;;;1.80;;
33108;SDS011;19481;51.118;6.940;2023-04-03T22:46:07;1.85;;;1.65;;
33108;SDS011;19481;51.118;6.940;2023-04-03T22:51:11;3.30;;;1.90;;
33108;SDS011;19481;51.118;6.940;2023-04-03T22:56:13;2.35;;;1.85;;
33108;SDS011;19481;51.118;6.940;2023-04-03T23:01:14;5.43;;;2.30;;
33108;SDS011;19481;51.118;6.940;2023-04-03T23:06:19;2.63;;;2.05;;
33108;SDS011;19481;51.118;6.940;2023-04-03T23:11:21;3.88;;;2.00;;
33108;SDS011;19481;51.118;6.940;2023-04-03T23:16:23;2.58;;;2.10;;
33108;SDS011;19481;51.118;6.940;2023-04-03T23:21:26;5.35;;;1.92;;
33108;SDS011;19481;51.118;6.940;2023-04-03T23:26:27;2.88;;;1.80;;
33108;SDS011;19481;51.118;6.940;2023-04-03T23:31:29;2.13;;;1.80;;
33108;SDS011;19481;51.118;6.940;2023-04-03T23:36:32;2.42;;;1.90;;
33108;SDS011;19481;51.118;6.940;2023-04-03T23:41:33;1.77;;;1.52;;
33108;SDS011;19481;51.118;6.940;2023-04-03T23:46:35;1.75;;;1.52;;
33108;SDS011;19481;51.118;6.940;2023-04-03T23:51:39;4.55;;;1.90;;
33108;SDS011;19481;51.118;6.940;2023-04-03T23:56:41;4.80;;;2.10;;
